Time;durP1;ratioP1;P1;durP2;ratioP2;P2;SDS_P1;SDS_P2;PMS_P1;PMS_P2;Temp;Humidity;BMP_temperature;BMP_pressure;BME280_temperature;BME280_humidity;BME280_pressure;Samples;Min_cycle;Max_cycle;Signal;HPM_P1;HPM_P2
2022/07/06 00:01:22;;;;;;;;;;;30.40;99.90;;;;;;5094310;28;19927;-81
2022/07/06 00:03:50;;;;;;;;;;;30.40;99.90;;;;;;5094650;28;19939;-82
2022/07/06 00:06:20;;;;;;;;;;;30.40;99.90;;;;;;5078228;28;20567;-81
2022/07/06 00:08:48;;;;;;;;;;;30.40;99.90;;;;;;5094924;28;20277;-81
2022/07/06 00:11:15;;;;;;;;;;;30.40;99.90;;;;;;5077656;28;19953;-82
2022/07/06 00:13:43;;;;;;;;;;;30.40;99.90;;;;;;5094949;28;19927;-81
2022/07/06 00:16:10;;;;;;;;;;;30.30;99.90;;;;;;5094857;28;19931;-82
2022/07/06 00:18:38;;;;;;;;;;;30.40;99.90;;;;;;5077629;28;19980;-81
2022/07/06 00:21:05;;;;;;;;;;;30.30;99.90;;;;;;5094085;28;20381;-82
2022/07/06 00:23:33;;;;;;;;;;;30.30;99.90;;;;;;5093183;28;19955;-81
2022/07/06 00:26:01;;;;;;;;;;;30.20;99.80;;;;;;5094137;28;19951;-81
2022/07/06 00:28:28;;;;;;;;;;;30.20;99.70;;;;;;5094793;28;19928;-82
2022/07/06 00:30:56;;;;;;;;;;;30.20;99.50;;;;;;5098305;28;19927;-82
2022/07/06 00:33:23;;;;;;;;;;;30.10;99.30;;;;;;5093825;28;20335;-81
2022/07/06 00:35:51;;;;;;;;;;;30.20;99.20;;;;;;5077553;28;19981;-81
2022/07/06 00:38:18;;;;;;;;;;;30.10;99.20;;;;;;5077232;28;19931;-81
2022/07/06 00:40:46;;;;;;;;;;;30.10;99.20;;;;;;5077193;28;19927;-82
2022/07/06 00:43:13;;;;;;;;;;;30.10;99.20;;;;;;5093722;28;20012;-82
2022/07/06 00:45:41;;;;;;;;;;;30.10;99.30;;;;;;5112230;28;20289;-81
2022/07/06 00:48:08;;;;;;;;;;;30.10;99.40;;;;;;5093813;28;19931;-81
2022/07/06 00:50:36;;;;;;;;;;;30.10;99.40;;;;;;5093535;28;19928;-81
2022/07/06 00:53:04;;;;;;;;;;;30.10;99.40;;;;;;5092872;28;20686;-81
2022/07/06 00:55:33;;;;;;;;;;;30.00;99.40;;;;;;5110051;28;19931;-81
2022/07/06 00:58:04;;;;;;;;;;;30.00;99.40;;;;;;5076407;28;19981;-80
2022/07/06 01:00:32;;;;;;;;;;;29.90;99.30;;;;;;5093350;28;19931;-80
2022/07/06 01:02:59;;;;;;;;;;;29.90;99.30;;;;;;5093492;28;20315;-81
2022/07/06 01:05:27;;;;;;;;;;;29.80;99.00;;;;;;5109500;28;20026;-81
2022/07/06 01:07:55;;;;;;;;;;;29.80;98.90;;;;;;5077078;28;19923;-81
2022/07/06 01:10:23;;;;;;;;;;;29.80;98.60;;;;;;5093264;28;20377;-80
2022/07/06 01:12:51;;;;;;;;;;;29.80;98.30;;;;;;5093270;28;19928;-81
2022/07/06 01:15:20;;;;;;;;;;;29.80;98.10;;;;;;5092804;28;20339;-80
2022/07/06 01:17:47;;;;;;;;;;;29.70;98.00;;;;;;5093363;28;20023;-81
2022/07/06 01:20:16;;;;;;;;;;;29.70;97.90;;;;;;5077123;27;19927;-81
2022/07/06 01:22:45;;;;;;;;;;;29.70;97.90;;;;;;5096093;27;19933;-81
2022/07/06 01:25:12;;;;;;;;;;;29.60;97.80;;;;;;5096610;27;19962;-81
2022/07/06 01:27:40;;;;;;;;;;;29.60;97.80;;;;;;5113122;27;20031;-81
2022/07/06 01:30:11;;;;;;;;;;;29.60;97.70;;;;;;5096436;27;19928;-81
2022/07/06 01:32:39;;;;;;;;;;;29.60;97.60;;;;;;5132138;27;20376;-81
2022/07/06 01:35:08;;;;;;;;;;;29.50;97.50;;;;;;5113416;27;19928;-81
2022/07/06 01:37:35;;;;;;;;;;;29.50;97.50;;;;;;5113643;27;19923;-81
2022/07/06 01:40:04;;;;;;;;;;;29.40;97.50;;;;;;5113266;27;20026;-81
2022/07/06 01:42:31;;;;;;;;;;;29.50;97.60;;;;;;5096725;27;19934;-81
2022/07/06 01:44:59;;;;;;;;;;;29.50;97.50;;;;;;5096451;27;19927;-81
2022/07/06 01:47:26;;;;;;;;;;;29.50;97.50;;;;;;5096166;28;19995;-80
2022/07/06 01:49:54;;;;;;;;;;;29.50;97.50;;;;;;5096972;27;19980;-80
2022/07/06 01:52:22;;;;;;;;;;;29.50;97.50;;;;;;5096788;27;19923;-81
2022/07/06 01:54:49;;;;;;;;;;;29.50;97.70;;;;;;5095329;27;20300;-81
2022/07/06 01:57:16;;;;;;;;;;;29.50;97.90;;;;;;5079583;27;20381;-81
2022/07/06 01:59:44;;;;;;;;;;;29.40;98.10;;;;;;5078326;27;19923;-81
2022/07/06 02:02:13;;;;;;;;;;;29.40;98.20;;;;;;5096531;28;19996;-81
2022/07/06 02:04:43;;;;;;;;;;;29.30;98.30;;;;;;5080178;28;19935;-80
2022/07/06 02:07:11;;;;;;;;;;;29.40;98.50;;;;;;5113005;28;19927;-80
2022/07/06 02:09:39;;;;;;;;;;;29.40;98.60;;;;;;5112469;28;20285;-80
2022/07/06 02:12:07;;;;;;;;;;;29.40;98.80;;;;;;5126717;28;19957;-80
2022/07/06 02:14:35;;;;;;;;;;;29.30;98.90;;;;;;5095497;28;19924;-80
2022/07/06 02:17:03;;;;;;;;;;;29.30;99.00;;;;;;5115463;27;19934;-80
2022/07/06 02:19:33;;;;;;;;;;;29.30;99.10;;;;;;5100337;27;19928;-81
2022/07/06 02:22:01;;;;;;;;;;;29.30;99.20;;;;;;5117296;27;20357;-81
2022/07/06 02:24:29;;;;;;;;;;;29.30;99.30;;;;;;5100406;27;19932;-81
2022/07/06 02:26:56;;;;;;;;;;;29.30;99.50;;;;;;5116659;27;19934;-80
2022/07/06 02:29:25;;;;;;;;;;;29.30;99.70;;;;;;5099562;27;20379;-81
2022/07/06 02:31:53;;;;;;;;;;;29.20;99.90;;;;;;5099968;27;19927;-81
2022/07/06 02:34:20;;;;;;;;;;;29.30;99.90;;;;;;5117041;27;20722;-80
2022/07/06 02:36:48;;;;;;;;;;;29.30;99.90;;;;;;5116901;27;19927;-80
2022/07/06 02:39:17;;;;;;;;;;;29.30;99.90;;;;;;5099810;27;19923;-80
2022/07/06 02:41:46;;;;;;;;;;;29.30;99.90;;;;;;5116577;27;19927;-80
2022/07/06 02:44:13;;;;;;;;;;;29.30;99.90;;;;;;5099489;27;20014;-80
2022/07/06 02:46:41;;;;;;;;;;;29.30;99.90;;;;;;5117057;27;20680;-80
2022/07/06 02:49:08;;;;;;;;;;;29.20;99.90;;;;;;5135166;27;19979;-80
2022/07/06 02:51:36;;;;;;;;;;;29.20;99.90;;;;;;5099390;27;20274;-80
2022/07/06 02:54:03;;;;;;;;;;;29.20;99.90;;;;;;5099864;27;19927;-80
2022/07/06 02:56:30;;;;;;;;;;;29.20;99.90;;;;;;5117066;27;20274;-80
2022/07/06 02:58:59;;;;;;;;;;;29.20;99.90;;;;;;5099601;27;19940;-80
2022/07/06 03:01:26;;;;;;;;;;;29.10;99.90;;;;;;5097730;27;19930;-80
2022/07/06 03:03:54;;;;;;;;;;;29.10;99.90;;;;;;5103291;28;20373;-80
2022/07/06 03:06:22;;;;;;;;;;;29.10;99.90;;;;;;5097598;28;19931;-80
2022/07/06 03:08:49;;;;;;;;;;;29.10;99.90;;;;;;5061889;28;20361;-80
2022/07/06 03:11:16;;;;;;;;;;;29.10;99.90;;;;;;5095508;28;19931;-80
2022/07/06 03:13:44;;;;;;;;;;;29.10;99.90;;;;;;5113945;28;20374;-80
2022/07/06 03:16:11;;;;;;;;;;;29.10;99.90;;;;;;5079161;28;19924;-79
2022/07/06 03:18:39;;;;;;;;;;;29.10;99.90;;;;;;5095693;28;20309;-80
2022/07/06 03:21:06;;;;;;;;;;;29.10;99.90;;;;;;5113994;28;19930;-79
2022/07/06 03:23:34;;;;;;;;;;;29.10;99.90;;;;;;5112430;28;20385;-80
2022/07/06 03:26:02;;;;;;;;;;;29.00;99.90;;;;;;5078435;28;19928;-80
2022/07/06 03:28:31;;;;;;;;;;;29.00;99.90;;;;;;5061734;28;19949;-80
2022/07/06 03:30:59;;;;;;;;;;;29.00;99.90;;;;;;5061761;28;20030;-80
2022/07/06 03:33:26;;;;;;;;;;;29.00;99.90;;;;;;5111996;28;19928;-80
2022/07/06 03:35:54;;;;;;;;;;;29.00;99.90;;;;;;5094908;28;19928;-80
2022/07/06 03:38:21;;;;;;;;;;;29.00;99.90;;;;;;5095252;28;19923;-79
2022/07/06 03:40:50;;;;;;;;;;;29.00;99.90;;;;;;5062109;28;19935;-80
2022/07/06 03:43:17;;;;;;;;;;;29.00;99.90;;;;;;5078342;28;20304;-79
2022/07/06 03:45:44;;;;;;;;;;;29.00;99.90;;;;;;5078634;28;20434;-80
2022/07/06 03:48:12;;;;;;;;;;;29.00;99.90;;;;;;5112023;28;20365;-80
2022/07/06 03:50:41;;;;;;;;;;;29.00;99.90;;;;;;5078469;28;19927;-79
2022/07/06 03:53:09;;;;;;;;;;;29.00;99.90;;;;;;5095153;28;20381;-79
2022/07/06 03:55:37;;;;;;;;;;;29.00;99.90;;;;;;5094259;28;19928;-80
2022/07/06 03:58:08;;;;;;;;;;;29.10;99.90;;;;;;5094478;28;19927;-80
2022/07/06 04:00:38;;;;;;;;;;;29.10;99.90;;;;;;5094045;28;19927;-79
2022/07/06 04:03:10;;;;;;;;;;;29.10;99.90;;;;;;5091663;28;19924;-80
2022/07/06 04:05:46;;;;;;;;;;;29.20;99.90;;;;;;5062512;28;19924;-80
2022/07/06 04:08:13;;;;;;;;;;;29.20;99.90;;;;;;5111524;28;20443;-80
2022/07/06 04:10:46;;;;;;;;;;;29.20;99.90;;;;;;5078375;28;20457;-80
2022/07/06 04:13:14;;;;;;;;;;;29.20;99.90;;;;;;5111556;28;19928;-79
2022/07/06 04:15:41;;;;;;;;;;;29.30;99.90;;;;;;5094633;28;19935;-79
2022/07/06 04:18:09;;;;;;;;;;;29.30;99.90;;;;;;5111052;28;20324;-79
2022/07/06 04:20:42;;;;;;;;;;;29.40;99.90;;;;;;5078461;28;19927;-79
2022/07/06 04:23:10;;;;;;;;;;;29.50;99.90;;;;;;5094662;28;19927;-79
2022/07/06 04:25:37;;;;;;;;;;;29.50;99.90;;;;;;5076881;28;19935;-79
2022/07/06 04:28:05;;;;;;;;;;;29.60;99.90;;;;;;5077322;28;19930;-79
2022/07/06 04:30:34;;;;;;;;;;;29.60;99.90;;;;;;5111439;28;19934;-79
2022/07/06 04:33:04;;;;;;;;;;;29.70;99.90;;;;;;5093813;28;20009;-79
2022/07/06 04:35:33;;;;;;;;;;;29.80;99.90;;;;;;5076868;28;19951;-80
2022/07/06 04:38:00;;;;;;;;;;;29.90;99.90;;;;;;5111220;28;20018;-79
2022/07/06 04:40:28;;;;;;;;;;;30.00;99.90;;;;;;5060289;28;20434;-79
2022/07/06 04:42:59;;;;;;;;;;;30.00;99.90;;;;;;5077252;28;19959;-79
2022/07/06 04:45:28;;;;;;;;;;;30.10;99.90;;;;;;5077290;28;19923;-80
2022/07/06 04:47:56;;;;;;;;;;;30.20;99.90;;;;;;5094389;28;20382;-79
2022/07/06 04:50:24;;;;;;;;;;;30.30;99.90;;;;;;5077823;28;19923;-80
2022/07/06 04:52:54;;;;;;;;;;;30.30;99.90;;;;;;5077107;28;19923;-80
2022/07/06 04:55:21;;;;;;;;;;;30.40;99.90;;;;;;5076609;28;19996;-79
2022/07/06 04:57:51;;;;;;;;;;;30.40;99.90;;;;;;5093603;28;19934;-79
2022/07/06 05:00:20;;;;;;;;;;;30.60;99.90;;;;;;5093813;28;19938;-79
2022/07/06 05:02:49;;;;;;;;;;;30.70;99.90;;;;;;5086115;27;20274;-79
2022/07/06 05:05:18;;;;;;;;;;;30.80;99.80;;;;;;5096874;27;20051;-79
2022/07/06 05:07:47;;;;;;;;;;;30.80;99.60;;;;;;5114411;27;19928;-79
2022/07/06 05:10:14;;;;;;;;;;;30.90;99.40;;;;;;5114489;27;19930;-79
2022/07/06 05:12:46;;;;;;;;;;;31.00;99.30;;;;;;5097938;27;19941;-79
2022/07/06 05:15:15;;;;;;;;;;;31.00;99.30;;;;;;5114004;27;19927;-79
2022/07/06 05:17:42;;;;;;;;;;;30.90;99.30;;;;;;5096750;27;19928;-79
2022/07/06 05:20:10;;;;;;;;;;;31.00;99.30;;;;;;5096984;27;20030;-79
2022/07/06 05:22:41;;;;;;;;;;;31.10;99.10;;;;;;5080600;27;19998;-78
2022/07/06 05:25:13;;;;;;;;;;;31.10;99.10;;;;;;5096477;27;19927;-77
2022/07/06 05:27:41;;;;;;;;;;;31.10;98.90;;;;;;5096774;27;20288;-79
2022/07/06 05:30:09;;;;;;;;;;;31.10;99.00;;;;;;5113696;27;19923;-80
2022/07/06 05:32:37;;;;;;;;;;;31.10;98.70;;;;;;5096797;27;19962;-79
2022/07/06 05:35:05;;;;;;;;;;;31.10;98.60;;;;;;5097395;27;19928;-79
2022/07/06 05:37:53;;;;;;;;;;;31.10;98.70;;;;;;5113689;27;19935;-79
2022/07/06 05:40:21;;;;;;;;;;;31.10;98.70;;;;;;5096616;27;20010;-79
2022/07/06 05:42:49;;;;;;;;;;;31.20;98.70;;;;;;5095887;27;20009;-79
2022/07/06 05:45:16;;;;;;;;;;;31.30;98.30;;;;;;5112776;27;19934;-79
2022/07/06 05:50:33;;;;;;;;;;;31.40;97.50;;;;;;5094355;28;19980;-79
2022/07/06 05:53:03;;;;;;;;;;;31.40;97.50;;;;;;5110315;28;19928;-78
2022/07/06 05:55:36;;;;;;;;;;;31.40;97.60;;;;;;5080511;28;19934;-78
2022/07/06 05:58:04;;;;;;;;;;;31.40;97.70;;;;;;5113454;28;19976;-80
2022/07/06 06:00:33;;;;;;;;;;;31.60;97.60;;;;;;5079916;28;19923;-79
2022/07/06 06:03:06;;;;;;;;;;;31.70;97.20;;;;;;5114311;28;20342;-79
2022/07/06 06:05:33;;;;;;;;;;;31.90;97.10;;;;;;5095916;28;19980;-79
2022/07/06 06:08:04;;;;;;;;;;;32.10;96.70;;;;;;5113542;28;19976;-78
2022/07/06 06:10:33;;;;;;;;;;;32.30;96.50;;;;;;5113519;28;19962;-79
2022/07/06 06:13:05;;;;;;;;;;;32.40;96.20;;;;;;5113271;27;19923;-79
2022/07/06 06:15:34;;;;;;;;;;;32.70;95.80;;;;;;5095991;27;19930;-80
2022/07/06 06:18:03;;;;;;;;;;;32.80;95.50;;;;;;5095890;28;19934;-79
2022/07/06 06:20:31;;;;;;;;;;;32.80;95.40;;;;;;5079630;27;19938;-80
2022/07/06 06:22:59;;;;;;;;;;;32.90;95.20;;;;;;5096689;28;19928;-80
2022/07/06 06:25:38;;;;;;;;;;;33.10;95.10;;;;;;5131362;27;19949;-80
2022/07/06 06:28:07;;;;;;;;;;;33.30;94.90;;;;;;5096093;28;19927;-80
2022/07/06 06:30:34;;;;;;;;;;;33.40;94.20;;;;;;5095961;28;19991;-80
2022/07/06 06:33:08;;;;;;;;;;;33.40;94.20;;;;;;5096394;28;19923;-80
2022/07/06 06:35:36;;;;;;;;;;;33.40;94.30;;;;;;5096355;28;19971;-80
2022/07/06 06:38:03;;;;;;;;;;;33.40;94.40;;;;;;5113417;28;19927;-80
2022/07/06 06:40:31;;;;;;;;;;;33.50;94.40;;;;;;5079330;28;20372;-80
2022/07/06 06:42:58;;;;;;;;;;;33.60;94.30;;;;;;5113265;28;20023;-79
2022/07/06 06:45:28;;;;;;;;;;;33.60;94.20;;;;;;5095914;28;19948;-79
2022/07/06 06:47:56;;;;;;;;;;;33.60;93.90;;;;;;5096016;28;19923;-79
2022/07/06 06:50:23;;;;;;;;;;;33.70;93.60;;;;;;5128971;28;20301;-79
2022/07/06 06:52:51;;;;;;;;;;;33.80;93.40;;;;;;5113256;28;19928;-79
2022/07/06 06:55:18;;;;;;;;;;;33.90;93.70;;;;;;5078097;27;19927;-79
2022/07/06 06:57:46;;;;;;;;;;;34.00;93.80;;;;;;5113008;28;20445;-80
2022/07/06 07:00:14;;;;;;;;;;;33.80;93.60;;;;;;5131722;28;19931;-79
2022/07/06 07:02:41;;;;;;;;;;;33.60;93.90;;;;;;5098203;27;19932;-78
2022/07/06 07:05:08;;;;;;;;;;;33.50;94.10;;;;;;5082610;27;20029;-77
2022/07/06 07:07:36;;;;;;;;;;;33.30;94.10;;;;;;5116138;27;20013;-79
2022/07/06 07:10:04;;;;;;;;;;;33.30;94.30;;;;;;5099685;27;20021;-79
2022/07/06 07:12:33;;;;;;;;;;;33.40;94.40;;;;;;5100156;27;19927;-79
2022/07/06 07:15:00;;;;;;;;;;;33.60;94.30;;;;;;5082711;27;19928;-79
2022/07/06 07:17:28;;;;;;;;;;;33.80;94.00;;;;;;5099147;27;19969;-79
2022/07/06 07:19:57;;;;;;;;;;;34.00;93.90;;;;;;5100031;27;20329;-80
2022/07/06 07:22:24;;;;;;;;;;;34.20;93.70;;;;;;5116380;27;19927;-78
2022/07/06 07:24:52;;;;;;;;;;;34.40;93.60;;;;;;5099876;27;19946;-79
2022/07/06 07:27:19;;;;;;;;;;;34.50;93.50;;;;;;5116151;27;20276;-78
2022/07/06 07:29:47;;;;;;;;;;;34.60;93.30;;;;;;5134952;27;19923;-79
2022/07/06 07:32:14;;;;;;;;;;;34.70;93.00;;;;;;5083205;27;19927;-78
2022/07/06 07:34:41;;;;;;;;;;;34.70;93.10;;;;;;5116736;27;19927;-79
2022/07/06 07:37:09;;;;;;;;;;;34.60;93.10;;;;;;5098963;27;19951;-79
2022/07/06 07:39:36;;;;;;;;;;;34.70;93.20;;;;;;5097816;27;19946;-78
2022/07/06 07:42:04;;;;;;;;;;;34.70;93.00;;;;;;5099223;27;20411;-81
2022/07/06 07:44:31;;;;;;;;;;;34.90;92.70;;;;;;5097156;27;19931;-82
2022/07/06 07:46:59;;;;;;;;;;;34.80;92.40;;;;;;5099820;27;20060;-81
2022/07/06 07:49:26;;;;;;;;;;;34.80;92.60;;;;;;5116441;27;19924;-84
2022/07/06 07:51:54;;;;;;;;;;;34.80;92.30;;;;;;5098906;27;19927;-81
2022/07/06 07:54:21;;;;;;;;;;;34.90;92.10;;;;;;5134489;27;20030;-80
2022/07/06 07:56:48;;;;;;;;;;;34.90;91.80;;;;;;5098778;27;19927;-79
2022/07/06 07:59:16;;;;;;;;;;;35.00;91.70;;;;;;5115593;27;19927;-80
2022/07/06 08:01:43;;;;;;;;;;;35.00;91.60;;;;;;5099142;27;19966;-80
2022/07/06 08:04:11;;;;;;;;;;;35.10;91.20;;;;;;5115880;27;20351;-80
2022/07/06 08:06:38;;;;;;;;;;;35.00;91.10;;;;;;5133964;27;20362;-80
2022/07/06 08:09:07;;;;;;;;;;;35.00;91.00;;;;;;5098294;27;19973;-80
2022/07/06 08:11:34;;;;;;;;;;;35.10;91.00;;;;;;5098400;27;19980;-81
2022/07/06 08:14:02;;;;;;;;;;;35.00;90.60;;;;;;5114292;27;19927;-80
2022/07/06 08:16:30;;;;;;;;;;;35.20;90.60;;;;;;5114360;27;19923;-81
2022/07/06 08:18:57;;;;;;;;;;;35.30;90.30;;;;;;5080184;27;20412;-80
2022/07/06 08:21:26;;;;;;;;;;;35.10;90.50;;;;;;5081359;27;19971;-80
2022/07/06 08:23:54;;;;;;;;;;;35.10;90.30;;;;;;5115450;27;19934;-80
2022/07/06 08:26:22;;;;;;;;;;;35.10;90.40;;;;;;5115144;27;19923;-80
2022/07/06 08:28:50;;;;;;;;;;;35.10;89.90;;;;;;5098600;27;20020;-81
2022/07/06 08:31:17;;;;;;;;;;;35.20;89.20;;;;;;5114688;27;20293;-80
2022/07/06 08:34:05;;;;;;;;;;;35.10;88.50;;;;;;5100809;27;20300;-80
2022/07/06 08:36:32;;;;;;;;;;;35.30;88.30;;;;;;5115045;27;19930;-81
2022/07/06 08:39:00;;;;;;;;;;;35.20;88.00;;;;;;5114250;27;19927;-80
2022/07/06 08:41:28;;;;;;;;;;;35.30;87.20;;;;;;5077123;28;20362;-81
2022/07/06 08:43:56;;;;;;;;;;;35.50;87.30;;;;;;5112495;28;20026;-80
2022/07/06 08:46:23;;;;;;;;;;;35.50;84.60;;;;;;5094145;28;19928;-81
2022/07/06 08:48:51;;;;;;;;;;;35.60;84.10;;;;;;5094820;28;19932;-81
2022/07/06 08:51:20;;;;;;;;;;;35.60;84.60;;;;;;5093928;28;19938;-80
2022/07/06 08:53:50;;;;;;;;;;;35.70;84.70;;;;;;5094042;28;20018;-81
2022/07/06 08:56:19;;;;;;;;;;;35.70;83.90;;;;;;5093825;28;19928;-81
2022/07/06 08:58:46;;;;;;;;;;;35.80;82.40;;;;;;5077561;28;19967;-81
2022/07/06 09:01:14;;;;;;;;;;;36.00;83.10;;;;;;5077394;28;20014;-80
2022/07/06 09:03:42;;;;;;;;;;;36.00;82.90;;;;;;5094423;28;19977;-81
2022/07/06 09:06:09;;;;;;;;;;;36.20;80.10;;;;;;5094050;28;19928;-81
2022/07/06 09:08:37;;;;;;;;;;;36.10;79.20;;;;;;5077133;28;20360;-81
2022/07/06 09:11:04;;;;;;;;;;;36.10;79.20;;;;;;5093849;28;19967;-81
2022/07/06 09:13:32;;;;;;;;;;;36.20;79.70;;;;;;5076905;28;19967;-80
2022/07/06 09:16:12;;;;;;;;;;;36.00;79.70;;;;;;5094269;28;19924;-81
2022/07/06 09:19:00;;;;;;;;;;;36.00;77.20;;;;;;5076689;28;19970;-81
2022/07/06 09:21:32;;;;;;;;;;;36.00;77.80;;;;;;5093966;28;20386;-81
2022/07/06 09:24:02;;;;;;;;;;;36.00;77.80;;;;;;5094066;28;19927;-81
2022/07/06 09:26:30;;;;;;;;;;;35.90;78.50;;;;;;5076115;28;19932;-81
2022/07/06 09:28:59;;;;;;;;;;;35.90;77.90;;;;;;5093874;28;19931;-81
2022/07/06 09:31:26;;;;;;;;;;;36.00;78.10;;;;;;5093143;28;19924;-81
2022/07/06 09:34:01;;;;;;;;;;;36.10;77.60;;;;;;5077178;28;19973;-81
2022/07/06 09:36:38;;;;;;;;;;;35.90;77.60;;;;;;5093710;28;19924;-81
2022/07/06 09:39:16;;;;;;;;;;;36.00;77.00;;;;;;5093536;28;19924;-80
2022/07/06 09:41:44;;;;;;;;;;;35.90;78.90;;;;;;5104179;27;19927;-80
2022/07/06 09:44:12;;;;;;;;;;;35.90;79.50;;;;;;5130906;27;19930;-81
2022/07/06 09:46:40;;;;;;;;;;;36.00;79.00;;;;;;5097080;27;19924;-81
2022/07/06 09:49:08;;;;;;;;;;;36.10;78.70;;;;;;5131843;27;20047;-81
2022/07/06 09:51:36;;;;;;;;;;;36.00;78.50;;;;;;5096914;27;19924;-81
2022/07/06 09:54:10;;;;;;;;;;;36.00;79.30;;;;;;5113774;27;19931;-81
2022/07/06 09:56:41;;;;;;;;;;;36.00;79.10;;;;;;5113576;28;20030;-81
2022/07/06 09:59:09;;;;;;;;;;;36.00;79.40;;;;;;5131780;27;20296;-80
2022/07/06 10:01:38;;;;;;;;;;;35.90;77.80;;;;;;5080008;27;20014;-81
2022/07/06 10:04:06;;;;;;;;;;;35.90;78.40;;;;;;5131062;27;19923;-81
2022/07/06 10:06:34;;;;;;;;;;;35.90;80.10;;;;;;5113491;28;20391;-81
2022/07/06 10:09:05;;;;;;;;;;;36.00;78.60;;;;;;5096215;28;20023;-81
2022/07/06 10:11:38;;;;;;;;;;;36.00;78.50;;;;;;5112935;27;19927;-81
2022/07/06 10:14:06;;;;;;;;;;;36.00;78.80;;;;;;5113498;28;20715;-81
2022/07/06 10:16:37;;;;;;;;;;;36.10;77.40;;;;;;5113446;28;19927;-81
2022/07/06 10:19:06;;;;;;;;;;;35.90;77.60;;;;;;5096350;28;19927;-81
2022/07/06 10:21:35;;;;;;;;;;;35.90;77.10;;;;;;5113321;28;19934;-82
2022/07/06 10:24:03;;;;;;;;;;;35.90;77.70;;;;;;5096260;28;19934;-81
2022/07/06 10:26:33;;;;;;;;;;;36.10;77.00;;;;;;5131829;27;20446;-81
2022/07/06 10:29:01;;;;;;;;;;;36.00;77.10;;;;;;5113563;27;19935;-81
2022/07/06 10:31:29;;;;;;;;;;;36.10;77.00;;;;;;5096629;28;19927;-81
2022/07/06 10:33:58;;;;;;;;;;;36.00;76.50;;;;;;5096408;28;19927;-81
2022/07/06 10:36:27;;;;;;;;;;;36.10;77.30;;;;;;5129643;27;20266;-81
2022/07/06 10:38:54;;;;;;;;;;;36.00;78.20;;;;;;5135827;27;20381;-81
2022/07/06 10:41:32;;;;;;;;;;;35.90;77.10;;;;;;5099901;27;19970;-81
2022/07/06 10:44:14;;;;;;;;;;;35.90;76.30;;;;;;5135675;27;19923;-81
2022/07/06 10:46:49;;;;;;;;;;;35.90;77.20;;;;;;5100586;27;19965;-81
2022/07/06 10:49:17;;;;;;;;;;;35.90;76.70;;;;;;5116919;27;19923;-82
2022/07/06 10:51:56;;;;;;;;;;;35.90;76.30;;;;;;5099916;27;19927;-81
2022/07/06 10:54:24;;;;;;;;;;;35.90;76.40;;;;;;5117211;27;19927;-81
2022/07/06 10:56:51;;;;;;;;;;;36.00;76.00;;;;;;5116953;27;19950;-81
2022/07/06 10:59:22;;;;;;;;;;;36.00;74.60;;;;;;5100154;27;19924;-81
2022/07/06 11:02:08;;;;;;;;;;;35.90;74.90;;;;;;5099907;27;19930;-81
2022/07/06 11:04:36;;;;;;;;;;;35.90;75.20;;;;;;5099970;27;19928;-81
2022/07/06 11:07:11;;;;;;;;;;;35.80;74.00;;;;;;5116835;27;19950;-81
2022/07/06 11:09:38;;;;;;;;;;;35.80;74.10;;;;;;5098983;27;20037;-81
2022/07/06 11:12:18;;;;;;;;;;;35.80;73.10;;;;;;5100208;27;19927;-81
2022/07/06 11:14:49;;;;;;;;;;;35.80;73.20;;;;;;5116672;27;19939;-81
2022/07/06 11:17:17;;;;;;;;;;;35.70;73.40;;;;;;5097632;27;19923;-80
2022/07/06 11:19:58;;;;;;;;;;;35.70;73.00;;;;;;5117166;27;19935;-81
2022/07/06 11:22:26;;;;;;;;;;;35.80;73.70;;;;;;5100139;27;19927;-81
2022/07/06 11:24:57;;;;;;;;;;;35.80;72.60;;;;;;5099920;27;19924;-82
2022/07/06 11:27:25;;;;;;;;;;;35.70;72.80;;;;;;5083263;27;19931;-82
2022/07/06 11:29:54;;;;;;;;;;;35.70;73.00;;;;;;5115596;27;20624;-81
2022/07/06 11:32:26;;;;;;;;;;;35.60;71.90;;;;;;5116702;27;19927;-81
2022/07/06 11:34:53;;;;;;;;;;;35.60;72.20;;;;;;5116954;27;19932;-81
2022/07/06 11:37:23;;;;;;;;;;;35.60;72.10;;;;;;5134918;27;20456;-81
2022/07/06 11:39:50;;;;;;;;;;;35.60;71.40;;;;;;5116219;27;19927;-81
2022/07/06 11:42:18;;;;;;;;;;;35.60;70.40;;;;;;5116214;27;19930;-82
2022/07/06 11:44:46;;;;;;;;;;;35.70;69.90;;;;;;5100053;27;19924;-81
2022/07/06 11:47:13;;;;;;;;;;;35.80;71.10;;;;;;5115765;27;19927;-81
2022/07/06 11:49:49;;;;;;;;;;;35.70;70.60;;;;;;5115886;27;20361;-81
2022/07/06 11:52:17;;;;;;;;;;;35.70;70.60;;;;;;5115814;27;19939;-81
2022/07/06 11:54:44;;;;;;;;;;;35.70;69.70;;;;;;5116106;27;19951;-82
2022/07/06 11:57:12;;;;;;;;;;;35.60;69.70;;;;;;5115409;27;19927;-82
2022/07/06 11:59:41;;;;;;;;;;;35.50;69.30;;;;;;5115263;27;20351;-82
2022/07/06 12:02:10;;;;;;;;;;;35.50;70.30;;;;;;5114917;27;19931;-82
2022/07/06 12:04:39;;;;;;;;;;;35.40;69.10;;;;;;5115773;27;19967;-81
2022/07/06 12:07:08;;;;;;;;;;;35.50;68.60;;;;;;5115612;27;19924;-81
2022/07/06 12:09:36;;;;;;;;;;;35.40;69.40;;;;;;5115066;27;20274;-81
2022/07/06 12:12:05;;;;;;;;;;;35.40;69.20;;;;;;5096296;27;20301;-81
2022/07/06 12:14:34;;;;;;;;;;;35.40;69.10;;;;;;5115302;27;20296;-82
2022/07/06 12:17:05;;;;;;;;;;;35.40;68.40;;;;;;5115807;27;20041;-81
2022/07/06 12:19:34;;;;;;;;;;;35.30;68.70;;;;;;5114996;27;20016;-81
2022/07/06 12:22:03;;;;;;;;;;;35.40;69.70;;;;;;5115151;27;19930;-81
2022/07/06 12:24:32;;;;;;;;;;;35.30;69.60;;;;;;5112357;27;19935;-82
2022/07/06 12:27:09;;;;;;;;;;;35.30;69.40;;;;;;5098529;27;19953;-81
2022/07/06 12:29:37;;;;;;;;;;;35.40;68.70;;;;;;5098703;27;19923;-81
2022/07/06 12:32:05;;;;;;;;;;;35.30;69.10;;;;;;5081460;27;20377;-83
2022/07/06 12:34:35;;;;;;;;;;;35.20;68.70;;;;;;5098007;27;19927;-81
2022/07/06 12:37:07;;;;;;;;;;;35.10;68.40;;;;;;5133609;27;19934;-81
2022/07/06 12:39:45;;;;;;;;;;;35.10;68.00;;;;;;5115435;27;19927;-81
2022/07/06 12:42:16;;;;;;;;;;;35.10;68.20;;;;;;5115358;27;19933;-81
2022/07/06 12:44:46;;;;;;;;;;;35.00;68.80;;;;;;5097851;27;19927;-81
2022/07/06 12:47:16;;;;;;;;;;;35.10;68.40;;;;;;5097868;27;19927;-81
2022/07/06 12:49:44;;;;;;;;;;;35.10;68.50;;;;;;5098886;27;19927;-82
2022/07/06 12:52:12;;;;;;;;;;;35.20;69.20;;;;;;5098796;27;20365;-81
2022/07/06 12:54:40;;;;;;;;;;;35.20;69.10;;;;;;5133631;27;19996;-80
2022/07/06 12:57:08;;;;;;;;;;;35.20;68.30;;;;;;5098225;27;19930;-81
2022/07/06 12:59:37;;;;;;;;;;;35.10;69.90;;;;;;5097072;27;19956;-80
2022/07/06 13:02:05;;;;;;;;;;;35.10;70.60;;;;;;5115399;27;20064;-81
2022/07/06 13:04:33;;;;;;;;;;;35.00;70.30;;;;;;5082870;27;20655;-82
2022/07/06 13:07:01;;;;;;;;;;;34.90;69.70;;;;;;5097056;27;19927;-82
2022/07/06 13:09:33;;;;;;;;;;;34.90;68.80;;;;;;5098443;27;19938;-82
2022/07/06 13:12:00;;;;;;;;;;;34.90;70.20;;;;;;5097183;27;19933;-82
2022/07/06 13:14:28;;;;;;;;;;;34.90;69.60;;;;;;5117748;27;19931;-82
2022/07/06 13:16:55;;;;;;;;;;;34.90;69.00;;;;;;5114838;27;19927;-83
2022/07/06 13:19:23;;;;;;;;;;;34.90;69.00;;;;;;5115443;27;19962;-82
2022/07/06 13:21:50;;;;;;;;;;;34.80;68.80;;;;;;5115035;27;19957;-82
2022/07/06 13:24:18;;;;;;;;;;;34.90;67.60;;;;;;5113859;27;19923;-81
2022/07/06 13:26:46;;;;;;;;;;;34.80;68.30;;;;;;5114090;27;19975;-81
2022/07/06 13:29:13;;;;;;;;;;;34.80;68.30;;;;;;5114292;27;20403;-79
2022/07/06 13:31:41;;;;;;;;;;;34.80;67.90;;;;;;5133186;27;19924;-82
2022/07/06 13:34:08;;;;;;;;;;;34.70;67.00;;;;;;5097559;27;19923;-82
2022/07/06 13:36:36;;;;;;;;;;;34.70;67.50;;;;;;5132187;27;20316;-81
2022/07/06 13:39:04;;;;;;;;;;;34.70;67.20;;;;;;5080511;27;19933;-82
2022/07/06 13:41:32;;;;;;;;;;;34.70;68.70;;;;;;5131185;27;19930;-81
2022/07/06 13:44:02;;;;;;;;;;;34.70;68.40;;;;;;5097192;27;19934;-82
2022/07/06 13:46:30;;;;;;;;;;;34.70;69.00;;;;;;5097788;27;20045;-82
2022/07/06 13:48:58;;;;;;;;;;;34.70;68.80;;;;;;5096708;27;20399;-82
2022/07/06 13:51:26;;;;;;;;;;;34.60;68.40;;;;;;5080239;27;20017;-83
2022/07/06 13:53:54;;;;;;;;;;;34.70;68.70;;;;;;5095741;27;19928;-80
2022/07/06 13:56:21;;;;;;;;;;;34.70;69.40;;;;;;5096267;27;20381;-81
2022/07/06 13:58:49;;;;;;;;;;;34.70;70.80;;;;;;5080062;27;19953;-81
2022/07/06 14:01:16;;;;;;;;;;;34.80;70.90;;;;;;5128525;27;19924;-80
2022/07/06 14:03:47;;;;;;;;;;;34.80;70.90;;;;;;5113442;28;20285;-81
2022/07/06 14:06:16;;;;;;;;;;;34.80;71.50;;;;;;5113317;28;19924;-80
2022/07/06 14:08:43;;;;;;;;;;;34.70;70.20;;;;;;5113281;28;19938;-82
2022/07/06 14:11:10;;;;;;;;;;;34.70;69.70;;;;;;5113853;28;19927;-80
2022/07/06 14:13:38;;;;;;;;;;;34.70;70.30;;;;;;5101023;27;19934;-80
2022/07/06 14:16:06;;;;;;;;;;;34.70;70.00;;;;;;5117744;27;20439;-80
2022/07/06 14:18:34;;;;;;;;;;;34.60;70.50;;;;;;5101355;27;19978;-82
2022/07/06 14:21:01;;;;;;;;;;;34.50;70.80;;;;;;5101691;27;19927;-81
2022/07/06 14:23:29;;;;;;;;;;;34.40;70.80;;;;;;5084510;27;20389;-82
2022/07/06 14:25:57;;;;;;;;;;;34.50;70.60;;;;;;5136036;27;20022;-81
2022/07/06 14:28:24;;;;;;;;;;;34.40;70.10;;;;;;5100920;27;19933;-82